sensor_id;sensor_type;location;lat;lon;timestamp;noise_LAeq;noise_LA_min;noise_LA_max;noise_LA01;noise_LA95
66888;Laerm;67239;51.680;5.976;2023-03-24T00:01:16;65.76;39.76;82.11;;
66888;Laerm;67239;51.680;5.976;2023-03-24T00:03:43;42.27;37.48;53.56;;
66888;Laerm;67239;51.680;5.976;2023-03-24T00:06:15;66.23;40.01;83.79;;
66888;Laerm;67239;51.680;5.976;2023-03-24T00:08:44;62.43;38.90;78.49;;
66888;Laerm;67239;51.680;5.976;2023-03-24T00:11:14;57.52;38.03;75.57;;
66888;Laerm;67239;51.680;5.976;2023-03-24T00:13:44;41.85;38.10;57.87;;
66888;Laerm;67239;51.680;5.976;2023-03-24T00:16:14;43.41;37.91;57.14;;
66888;Laerm;67239;51.680;5.976;2023-03-24T00:18:43;43.04;37.68;62.23;;
66888;Laerm;67239;51.680;5.976;2023-03-24T00:21:10;61.79;38.45;81.87;;
66888;Laerm;67239;51.680;5.976;2023-03-24T00:23:46;45.47;40.06;74.06;;
66888;Laerm;67239;51.680;5.976;2023-03-24T00:26:16;45.00;40.69;68.79;;
66888;Laerm;67239;51.680;5.976;2023-03-24T00:28:46;43.05;38.82;63.99;;
66888;Laerm;67239;51.680;5.976;2023-03-24T00:31:15;42.37;37.10;57.12;;
66888;Laerm;67239;51.680;5.976;2023-03-24T00:33:45;45.38;37.55;66.93;;
66888;Laerm;67239;51.680;5.976;2023-03-24T00:36:19;42.02;37.74;50.88;;
66888;Laerm;67239;51.680;5.976;2023-03-24T00:38:47;42.58;37.76;50.34;;
66888;Laerm;67239;51.680;5.976;2023-03-24T00:41:16;41.66;38.00;52.27;;
66888;Laerm;67239;51.680;5.976;2023-03-24T00:43:48;42.10;37.93;57.35;;
66888;Laerm;67239;51.680;5.976;2023-03-24T00:46:17;42.38;38.15;57.08;;
66888;Laerm;67239;51.680;5.976;2023-03-24T00:49:05;61.09;40.79;77.78;;
66888;Laerm;67239;51.680;5.976;2023-03-24T00:51:39;39.63;36.09;47.55;;
66888;Laerm;67239;51.680;5.976;2023-03-24T00:54:11;40.42;36.27;49.70;;
66888;Laerm;67239;51.680;5.976;2023-03-24T00:56:40;55.02;37.70;72.06;;
66888;Laerm;67239;51.680;5.976;2023-03-24T00:59:09;41.71;37.52;52.67;;
66888;Laerm;67239;51.680;5.976;2023-03-24T01:01:37;42.11;37.33;55.31;;
66888;Laerm;67239;51.680;5.976;2023-03-24T01:04:07;44.04;37.96;58.04;;
66888;Laerm;67239;51.680;5.976;2023-03-24T01:06:37;42.30;37.58;54.77;;
66888;Laerm;67239;51.680;5.976;2023-03-24T01:09:06;43.42;39.37;51.77;;
66888;Laerm;67239;51.680;5.976;2023-03-24T01:11:38;58.54;39.62;77.48;;
66888;Laerm;67239;51.680;5.976;2023-03-24T01:14:06;43.70;38.79;53.24;;
66888;Laerm;67239;51.680;5.976;2023-03-24T01:16:34;41.51;37.63;52.36;;
66888;Laerm;67239;51.680;5.976;2023-03-24T01:19:02;41.92;37.50;51.46;;
66888;Laerm;67239;51.680;5.976;2023-03-24T01:21:30;41.80;38.13;51.36;;
66888;Laerm;67239;51.680;5.976;2023-03-24T01:23:57;42.81;38.22;62.30;;
66888;Laerm;67239;51.680;5.976;2023-03-24T01:26:24;43.34;38.00;55.61;;
66888;Laerm;67239;51.680;5.976;2023-03-24T01:28:51;43.45;37.79;62.87;;
66888;Laerm;67239;51.680;5.976;2023-03-24T01:31:18;42.04;37.98;61.81;;
66888;Laerm;67239;51.680;5.976;2023-03-24T01:33:45;41.56;37.22;65.47;;
66888;Laerm;67239;51.680;5.976;2023-03-24T01:36:12;39.71;36.35;50.76;;
66888;Laerm;67239;51.680;5.976;2023-03-24T01:38:40;42.14;38.74;58.47;;
66888;Laerm;67239;51.680;5.976;2023-03-24T01:41:07;43.02;38.66;62.57;;
66888;Laerm;67239;51.680;5.976;2023-03-24T01:43:34;57.85;38.93;75.92;;
66888;Laerm;67239;51.680;5.976;2023-03-24T01:46:17;43.49;39.09;62.41;;
66888;Laerm;67239;51.680;5.976;2023-03-24T01:49:00;64.53;40.21;82.18;;
66888;Laerm;67239;51.680;5.976;2023-03-24T01:51:37;43.71;39.69;67.63;;
66888;Laerm;67239;51.680;5.976;2023-03-24T01:54:28;45.05;39.95;66.17;;
66888;Laerm;67239;51.680;5.976;2023-03-24T01:57:06;44.85;41.32;61.04;;
66888;Laerm;67239;51.680;5.976;2023-03-24T01:59:47;46.65;41.53;64.29;;
66888;Laerm;67239;51.680;5.976;2023-03-24T02:02:21;45.59;40.98;64.35;;
66888;Laerm;67239;51.680;5.976;2023-03-24T02:04:58;43.50;40.13;60.37;;
66888;Laerm;67239;51.680;5.976;2023-03-24T02:11:01;42.47;38.33;56.22;;
66888;Laerm;67239;51.680;5.976;2023-03-24T02:13:37;41.36;37.30;59.93;;
66888;Laerm;67239;51.680;5.976;2023-03-24T02:16:48;40.31;36.95;55.63;;
66888;Laerm;67239;51.680;5.976;2023-03-24T02:19:59;44.04;37.65;64.88;;
66888;Laerm;67239;51.680;5.976;2023-03-24T02:31:41;42.26;38.99;55.07;;
66888;Laerm;67239;51.680;5.976;2023-03-24T02:41:21;54.20;37.91;71.72;;
66888;Laerm;67239;51.680;5.976;2023-03-24T02:44:05;45.23;37.76;76.31;;
66888;Laerm;67239;51.680;5.976;2023-03-24T02:46:45;42.30;37.19;60.23;;
66888;Laerm;67239;51.680;5.976;2023-03-24T02:49:47;44.60;39.02;63.08;;
66888;Laerm;67239;51.680;5.976;2023-03-24T02:52:42;64.85;40.90;83.73;;
66888;Laerm;67239;51.680;5.976;2023-03-24T02:55:22;44.95;40.70;60.16;;
66888;Laerm;67239;51.680;5.976;2023-03-24T02:58:20;64.22;41.01;84.69;;
66888;Laerm;67239;51.680;5.976;2023-03-24T03:01:02;45.93;40.84;60.62;;
66888;Laerm;67239;51.680;5.976;2023-03-24T03:03:56;45.51;40.54;64.50;;
66888;Laerm;67239;51.680;5.976;2023-03-24T03:06:28;48.66;39.76;68.44;;
66888;Laerm;67239;51.680;5.976;2023-03-24T03:09:07;46.69;41.06;62.74;;
66888;Laerm;67239;51.680;5.976;2023-03-24T03:11:38;45.49;41.01;61.20;;
66888;Laerm;67239;51.680;5.976;2023-03-24T03:14:19;48.84;40.61;70.66;;
66888;Laerm;67239;51.680;5.976;2023-03-24T03:17:07;60.28;39.89;80.15;;
66888;Laerm;67239;51.680;5.976;2023-03-24T03:19:43;48.09;41.53;64.85;;
66888;Laerm;67239;51.680;5.976;2023-03-24T03:22:22;49.82;41.97;71.12;;
66888;Laerm;67239;51.680;5.976;2023-03-24T03:24:54;48.39;40.41;63.04;;
66888;Laerm;67239;51.680;5.976;2023-03-24T03:27:28;50.55;43.12;70.40;;
66888;Laerm;67239;51.680;5.976;2023-03-24T03:30:04;45.21;39.72;57.02;;
66888;Laerm;67239;51.680;5.976;2023-03-24T03:32:37;46.53;40.84;57.58;;
66888;Laerm;67239;51.680;5.976;2023-03-24T03:35:18;46.41;39.78;64.63;;
66888;Laerm;67239;51.680;5.976;2023-03-24T03:38:12;60.40;42.40;78.22;;
66888;Laerm;67239;51.680;5.976;2023-03-24T03:40:55;46.15;40.31;58.37;;
66888;Laerm;67239;51.680;5.976;2023-03-24T03:43:32;61.34;41.39;79.27;;
66888;Laerm;67239;51.680;5.976;2023-03-24T03:46:02;47.65;40.96;62.47;;
66888;Laerm;67239;51.680;5.976;2023-03-24T03:48:36;67.49;43.65;83.24;;
66888;Laerm;67239;51.680;5.976;2023-03-24T03:51:04;65.80;45.15;80.70;;
66888;Laerm;67239;51.680;5.976;2023-03-24T03:53:46;50.12;42.59;66.32;;
66888;Laerm;67239;51.680;5.976;2023-03-24T03:56:22;65.13;41.49;85.16;;
66888;Laerm;67239;51.680;5.976;2023-03-24T03:59:34;51.72;40.78;66.81;;
66888;Laerm;67239;51.680;5.976;2023-03-24T04:02:22;57.05;45.99;74.08;;
66888;Laerm;67239;51.680;5.976;2023-03-24T04:08:16;57.52;44.24;74.37;;
66888;Laerm;67239;51.680;5.976;2023-03-24T04:11:29;49.22;42.96;73.13;;
66888;Laerm;67239;51.680;5.976;2023-03-24T04:20:50;61.73;42.52;78.26;;
66888;Laerm;67239;51.680;5.976;2023-03-24T04:23:54;63.19;42.29;78.48;;
66888;Laerm;67239;51.680;5.976;2023-03-24T04:26:53;64.66;43.86;84.85;;
66888;Laerm;67239;51.680;5.976;2023-03-24T04:30:08;63.15;43.06;79.91;;
66888;Laerm;67239;51.680;5.976;2023-03-24T04:32:50;48.39;42.82;63.47;;
66888;Laerm;67239;51.680;5.976;2023-03-24T04:35:39;63.15;44.14;80.48;;
66888;Laerm;67239;51.680;5.976;2023-03-24T04:38:22;64.31;43.87;79.50;;
66888;Laerm;67239;51.680;5.976;2023-03-24T04:41:06;64.10;44.93;79.35;;
66888;Laerm;67239;51.680;5.976;2023-03-24T04:43:35;67.20;45.06;80.36;;
66888;Laerm;67239;51.680;5.976;2023-03-24T04:46:07;65.83;46.41;79.18;;
66888;Laerm;67239;51.680;5.976;2023-03-24T04:48:49;63.54;45.70;79.65;;
66888;Laerm;67239;51.680;5.976;2023-03-24T04:51:27;68.09;46.40;86.52;;
66888;Laerm;67239;51.680;5.976;2023-03-24T04:54:08;65.74;47.33;81.71;;
66888;Laerm;67239;51.680;5.976;2023-03-24T04:56:52;62.29;46.40;82.56;;
66888;Laerm;67239;51.680;5.976;2023-03-24T04:59:28;67.14;46.71;81.38;;
66888;Laerm;67239;51.680;5.976;2023-03-24T05:01:56;66.65;46.91;80.57;;
66888;Laerm;67239;51.680;5.976;2023-03-24T05:04:52;68.80;49.38;82.84;;
66888;Laerm;67239;51.680;5.976;2023-03-24T05:07:25;68.84;48.58;82.06;;
66888;Laerm;67239;51.680;5.976;2023-03-24T05:09:56;69.67;45.42;83.73;;
66888;Laerm;67239;51.680;5.976;2023-03-24T05:12:24;64.92;46.10;80.60;;
66888;Laerm;67239;51.680;5.976;2023-03-24T05:15:10;66.30;46.52;80.96;;
66888;Laerm;67239;51.680;5.976;2023-03-24T05:17:39;62.03;44.45;78.24;;
66888;Laerm;67239;51.680;5.976;2023-03-24T05:20:07;65.87;44.30;79.98;;
66888;Laerm;67239;51.680;5.976;2023-03-24T05:22:38;65.32;42.68;81.23;;
66888;Laerm;67239;51.680;5.976;2023-03-24T05:25:06;68.08;45.92;83.28;;
66888;Laerm;67239;51.680;5.976;2023-03-24T05:27:33;64.75;46.64;79.81;;
66888;Laerm;67239;51.680;5.976;2023-03-24T05:30:12;66.93;46.81;79.70;;
66888;Laerm;67239;51.680;5.976;2023-03-24T05:32:41;61.96;44.34;78.01;;
66888;Laerm;67239;51.680;5.976;2023-03-24T05:35:10;67.86;45.86;82.10;;
66888;Laerm;67239;51.680;5.976;2023-03-24T05:37:37;70.47;46.15;85.85;;
66888;Laerm;67239;51.680;5.976;2023-03-24T05:40:05;66.53;46.48;85.22;;
66888;Laerm;67239;51.680;5.976;2023-03-24T05:42:53;69.12;47.74;83.13;;
66888;Laerm;67239;51.680;5.976;2023-03-24T05:45:24;65.76;48.66;77.81;;
66888;Laerm;67239;51.680;5.976;2023-03-24T05:47:52;69.02;48.80;80.44;;
66888;Laerm;67239;51.680;5.976;2023-03-24T05:50:26;68.07;48.58;81.61;;
66888;Laerm;67239;51.680;5.976;2023-03-24T05:52:53;71.04;48.06;85.36;;
66888;Laerm;67239;51.680;5.976;2023-03-24T05:55:49;68.41;48.32;83.40;;
66888;Laerm;67239;51.680;5.976;2023-03-24T05:58:38;68.17;47.63;85.03;;
66888;Laerm;67239;51.680;5.976;2023-03-24T06:01:10;71.75;54.78;84.45;;
66888;Laerm;67239;51.680;5.976;2023-03-24T06:03:38;65.72;45.04;80.72;;
66888;Laerm;67239;51.680;5.976;2023-03-24T06:06:12;70.72;53.57;81.00;;
66888;Laerm;67239;51.680;5.976;2023-03-24T06:08:43;64.95;46.34;79.90;;
66888;Laerm;67239;51.680;5.976;2023-03-24T06:11:14;67.96;46.77;82.99;;
66888;Laerm;67239;51.680;5.976;2023-03-24T06:13:56;67.01;47.70;81.31;;
66888;Laerm;67239;51.680;5.976;2023-03-24T06:16:29;67.00;47.74;81.93;;
66888;Laerm;67239;51.680;5.976;2023-03-24T06:19:02;70.47;49.85;84.67;;
66888;Laerm;67239;51.680;5.976;2023-03-24T06:21:48;68.94;49.21;86.10;;
66888;Laerm;67239;51.680;5.976;2023-03-24T06:24:19;68.23;48.21;83.58;;
66888;Laerm;67239;51.680;5.976;2023-03-24T06:26:47;67.29;45.36;80.38;;
66888;Laerm;67239;51.680;5.976;2023-03-24T06:29:17;63.02;46.37;74.71;;
66888;Laerm;67239;51.680;5.976;2023-03-24T06:31:47;68.39;46.23;80.23;;
66888;Laerm;67239;51.680;5.976;2023-03-24T06:34:15;64.33;46.01;77.02;;
66888;Laerm;67239;51.680;5.976;2023-03-24T06:36:47;64.72;45.38;80.20;;
66888;Laerm;67239;51.680;5.976;2023-03-24T06:39:14;66.81;45.17;82.50;;
66888;Laerm;67239;51.680;5.976;2023-03-24T06:41:41;70.00;48.13;83.38;;
66888;Laerm;67239;51.680;5.976;2023-03-24T06:44:09;66.88;46.39;78.77;;
66888;Laerm;67239;51.680;5.976;2023-03-24T06:46:36;69.65;48.23;79.50;;
66888;Laerm;67239;51.680;5.976;2023-03-24T06:49:03;68.83;48.13;82.97;;
66888;Laerm;67239;51.680;5.976;2023-03-24T06:51:30;68.98;48.29;83.30;;
66888;Laerm;67239;51.680;5.976;2023-03-24T06:53:57;66.93;48.21;82.37;;
66888;Laerm;67239;51.680;5.976;2023-03-24T06:56:25;69.54;52.59;79.08;;
66888;Laerm;67239;51.680;5.976;2023-03-24T06:58:57;70.05;51.28;82.67;;
66888;Laerm;67239;51.680;5.976;2023-03-24T07:01:28;69.59;50.23;82.96;;
66888;Laerm;67239;51.680;5.976;2023-03-24T07:03:59;68.53;52.03;79.22;;
66888;Laerm;67239;51.680;5.976;2023-03-24T07:06:46;70.05;50.16;82.85;;
66888;Laerm;67239;51.680;5.976;2023-03-24T07:09:33;69.89;49.33;82.62;;
66888;Laerm;67239;51.680;5.976;2023-03-24T07:12:01;67.28;46.69;79.03;;
66888;Laerm;67239;51.680;5.976;2023-03-24T07:14:29;69.52;48.19;82.91;;
66888;Laerm;67239;51.680;5.976;2023-03-24T07:16:57;70.53;47.84;81.84;;
66888;Laerm;67239;51.680;5.976;2023-03-24T07:19:25;69.81;47.66;82.61;;
66888;Laerm;67239;51.680;5.976;2023-03-24T07:22:13;68.65;50.13;80.95;;
66888;Laerm;67239;51.680;5.976;2023-03-24T07:25:00;70.79;50.96;85.65;;
66888;Laerm;67239;51.680;5.976;2023-03-24T07:27:43;68.82;50.87;80.31;;
66888;Laerm;67239;51.680;5.976;2023-03-24T07:30:10;68.60;49.22;79.59;;
66888;Laerm;67239;51.680;5.976;2023-03-24T07:32:43;68.98;50.59;82.00;;
66888;Laerm;67239;51.680;5.976;2023-03-24T07:35:11;70.35;47.57;84.09;;
66888;Laerm;67239;51.680;5.976;2023-03-24T07:37:38;69.03;48.86;81.39;;
66888;Laerm;67239;51.680;5.976;2023-03-24T07:40:08;65.74;47.42;78.24;;
66888;Laerm;67239;51.680;5.976;2023-03-24T07:42:39;67.44;49.42;79.28;;
66888;Laerm;67239;51.680;5.976;2023-03-24T07:45:27;75.88;55.91;84.77;;
66888;Laerm;67239;51.680;5.976;2023-03-24T07:47:55;74.53;53.21;85.74;;
66888;Laerm;67239;51.680;5.976;2023-03-24T07:50:30;69.55;53.96;82.64;;
66888;Laerm;67239;51.680;5.976;2023-03-24T07:52:58;73.43;51.88;86.86;;
66888;Laerm;67239;51.680;5.976;2023-03-24T07:55:26;68.44;51.83;81.24;;
66888;Laerm;67239;51.680;5.976;2023-03-24T07:57:57;69.37;52.21;81.16;;
66888;Laerm;67239;51.680;5.976;2023-03-24T08:00:27;69.52;53.29;81.93;;
66888;Laerm;67239;51.680;5.976;2023-03-24T08:03:11;70.31;52.82;81.21;;
66888;Laerm;67239;51.680;5.976;2023-03-24T08:05:59;68.67;49.71;81.27;;
66888;Laerm;67239;51.680;5.976;2023-03-24T08:08:38;70.96;49.87;85.26;;
66888;Laerm;67239;51.680;5.976;2023-03-24T08:11:05;70.31;49.03;83.80;;
66888;Laerm;67239;51.680;5.976;2023-03-24T08:13:32;69.37;48.20;85.66;;
66888;Laerm;67239;51.680;5.976;2023-03-24T08:16:00;69.03;48.46;84.05;;
66888;Laerm;67239;51.680;5.976;2023-03-24T08:18:27;66.13;48.49;81.68;;
66888;Laerm;67239;51.680;5.976;2023-03-24T08:20:57;67.78;49.47;80.60;;
66888;Laerm;67239;51.680;5.976;2023-03-24T08:23:24;69.99;52.53;86.54;;
66888;Laerm;67239;51.680;5.976;2023-03-24T08:25:51;67.72;49.02;80.78;;
66888;Laerm;67239;51.680;5.976;2023-03-24T08:28:19;69.23;50.20;83.53;;
66888;Laerm;67239;51.680;5.976;2023-03-24T08:30:46;69.08;50.47;79.31;;
66888;Laerm;67239;51.680;5.976;2023-03-24T08:33:15;67.29;47.51;80.19;;
66888;Laerm;67239;51.680;5.976;2023-03-24T08:35:43;68.87;51.72;81.23;;
66888;Laerm;67239;51.680;5.976;2023-03-24T08:38:12;69.72;48.55;81.85;;
66888;Laerm;67239;51.680;5.976;2023-03-24T08:40:44;70.96;51.40;82.34;;
66888;Laerm;67239;51.680;5.976;2023-03-24T08:43:29;67.54;48.03;83.45;;
66888;Laerm;67239;51.680;5.976;2023-03-24T08:45:58;67.38;47.42;77.83;;
66888;Laerm;67239;51.680;5.976;2023-03-24T08:48:27;68.83;49.79;80.62;;
66888;Laerm;67239;51.680;5.976;2023-03-24T08:50:55;68.62;48.81;82.31;;
66888;Laerm;67239;51.680;5.976;2023-03-24T08:53:22;69.27;47.03;84.12;;
66888;Laerm;67239;51.680;5.976;2023-03-24T08:55:50;71.59;48.83;83.02;;
66888;Laerm;67239;51.680;5.976;2023-03-24T08:58:19;66.04;48.20;80.07;;
66888;Laerm;67239;51.680;5.976;2023-03-24T09:00:47;69.64;49.64;83.08;;
66888;Laerm;67239;51.680;5.976;2023-03-24T09:03:18;70.90;52.03;82.27;;
66888;Laerm;67239;51.680;5.976;2023-03-24T09:05:49;68.37;49.55;78.77;;
66888;Laerm;67239;51.680;5.976;2023-03-24T09:08:18;70.05;50.11;82.28;;
66888;Laerm;67239;51.680;5.976;2023-03-24T09:10:45;73.93;48.39;93.01;;
66888;Laerm;67239;51.680;5.976;2023-03-24T09:13:13;67.06;48.05;79.60;;
66888;Laerm;67239;51.680;5.976;2023-03-24T09:15:53;69.05;49.90;82.65;;
66888;Laerm;67239;51.680;5.976;2023-03-24T09:18:23;71.08;52.35;81.85;;
66888;Laerm;67239;51.680;5.976;2023-03-24T09:20:50;68.24;50.30;79.69;;
66888;Laerm;67239;51.680;5.976;2023-03-24T09:23:19;68.08;45.86;81.04;;
66888;Laerm;67239;51.680;5.976;2023-03-24T09:25:51;66.90;44.98;81.51;;
66888;Laerm;67239;51.680;5.976;2023-03-24T09:28:20;66.93;47.54;80.07;;
66888;Laerm;67239;51.680;5.976;2023-03-24T09:30:48;69.88;47.51;84.18;;
66888;Laerm;67239;51.680;5.976;2023-03-24T09:33:16;65.69;46.41;80.40;;
66888;Laerm;67239;51.680;5.976;2023-03-24T09:35:43;69.59;47.19;82.74;;
66888;Laerm;67239;51.680;5.976;2023-03-24T09:38:10;67.76;46.59;80.14;;
66888;Laerm;67239;51.680;5.976;2023-03-24T09:40:41;65.31;45.84;79.33;;
66888;Laerm;67239;51.680;5.976;2023-03-24T09:43:38;68.00;47.38;84.47;;
66888;Laerm;67239;51.680;5.976;2023-03-24T09:46:28;66.57;48.04;78.05;;
66888;Laerm;67239;51.680;5.976;2023-03-24T09:48:58;67.65;50.72;80.98;;
66888;Laerm;67239;51.680;5.976;2023-03-24T09:51:28;70.46;50.92;87.85;;
66888;Laerm;67239;51.680;5.976;2023-03-24T09:54:19;68.92;48.02;80.62;;
66888;Laerm;67239;51.680;5.976;2023-03-24T09:56:49;70.43;49.29;86.25;;
66888;Laerm;67239;51.680;5.976;2023-03-24T09:59:33;70.17;47.70;82.91;;
66888;Laerm;67239;51.680;5.976;2023-03-24T10:02:11;68.34;47.16;80.89;;
66888;Laerm;67239;51.680;5.976;2023-03-24T10:04:39;66.80;49.11;77.46;;
66888;Laerm;67239;51.680;5.976;2023-03-24T10:07:34;66.83;49.45;80.12;;
66888;Laerm;67239;51.680;5.976;2023-03-24T10:10:38;68.76;46.32;83.71;;
66888;Laerm;67239;51.680;5.976;2023-03-24T10:13:23;69.89;51.67;81.97;;
66888;Laerm;67239;51.680;5.976;2023-03-24T10:16:01;68.29;45.79;81.30;;
66888;Laerm;67239;51.680;5.976;2023-03-24T10:21:25;68.86;44.22;80.64;;
66888;Laerm;67239;51.680;5.976;2023-03-24T10:24:06;69.36;47.32;81.46;;
66888;Laerm;67239;51.680;5.976;2023-03-24T10:27:01;66.71;45.21;80.83;;
66888;Laerm;67239;51.680;5.976;2023-03-24T10:29:34;69.18;44.32;80.06;;
66888;Laerm;67239;51.680;5.976;2023-03-24T10:32:14;64.78;44.41;79.30;;
66888;Laerm;67239;51.680;5.976;2023-03-24T10:34:47;67.98;46.76;77.93;;
66888;Laerm;67239;51.680;5.976;2023-03-24T10:37:17;70.33;48.60;83.26;;
66888;Laerm;67239;51.680;5.976;2023-03-24T10:39:45;69.36;46.18;81.03;;
66888;Laerm;67239;51.680;5.976;2023-03-24T10:42:17;68.86;46.32;83.36;;
66888;Laerm;67239;51.680;5.976;2023-03-24T10:44:50;68.73;48.76;79.00;;
66888;Laerm;67239;51.680;5.976;2023-03-24T10:47:24;68.23;45.86;84.54;;
66888;Laerm;67239;51.680;5.976;2023-03-24T10:50:01;70.96;48.88;81.21;;
66888;Laerm;67239;51.680;5.976;2023-03-24T10:52:43;66.55;45.42;80.12;;
66888;Laerm;67239;51.680;5.976;2023-03-24T10:55:16;70.06;47.79;86.60;;
66888;Laerm;67239;51.680;5.976;2023-03-24T10:57:49;69.86;47.43;81.45;;
66888;Laerm;67239;51.680;5.976;2023-03-24T11:00:30;63.09;48.19;77.32;;
66888;Laerm;67239;51.680;5.976;2023-03-24T11:03:06;68.49;49.12;80.22;;
66888;Laerm;67239;51.680;5.976;2023-03-24T11:05:39;64.49;47.55;77.75;;
66888;Laerm;67239;51.680;5.976;2023-03-24T11:10:44;67.99;49.35;80.78;;
66888;Laerm;67239;51.680;5.976;2023-03-24T11:13:32;68.66;48.23;80.09;;
66888;Laerm;67239;51.680;5.976;2023-03-24T11:16:15;62.52;46.88;76.38;;
66888;Laerm;67239;51.680;5.976;2023-03-24T11:19:05;69.04;48.04;82.97;;
66888;Laerm;67239;51.680;5.976;2023-03-24T11:21:37;67.66;49.89;80.10;;
66888;Laerm;67239;51.680;5.976;2023-03-24T11:24:15;66.61;49.93;81.00;;
66888;Laerm;67239;51.680;5.976;2023-03-24T11:26:51;66.98;49.88;80.54;;
66888;Laerm;67239;51.680;5.976;2023-03-24T11:29:23;69.08;51.28;79.07;;
66888;Laerm;67239;51.680;5.976;2023-03-24T11:32:03;68.32;47.66;81.74;;
66888;Laerm;67239;51.680;5.976;2023-03-24T11:34:44;68.23;49.57;79.68;;
66888;Laerm;67239;51.680;5.976;2023-03-24T11:37:17;68.95;51.14;78.60;;
66888;Laerm;67239;51.680;5.976;2023-03-24T11:40:15;68.89;50.27;80.72;;
66888;Laerm;67239;51.680;5.976;2023-03-24T11:45:36;68.14;48.23;83.59;;
66888;Laerm;67239;51.680;5.976;2023-03-24T11:48:32;70.99;45.24;87.98;;
66888;Laerm;67239;51.680;5.976;2023-03-24T11:51:03;64.59;42.37;77.36;;
66888;Laerm;67239;51.680;5.976;2023-03-24T11:53:47;69.77;46.49;83.09;;
66888;Laerm;67239;51.680;5.976;2023-03-24T11:56:40;69.39;49.63;82.86;;
66888;Laerm;67239;51.680;5.976;2023-03-24T11:59:33;69.10;46.45;85.35;;
66888;Laerm;67239;51.680;5.976;2023-03-24T12:05:33;68.64;45.41;83.22;;
66888;Laerm;67239;51.680;5.976;2023-03-24T12:11:45;69.96;48.00;81.48;;
66888;Laerm;67239;51.680;5.976;2023-03-24T12:14:45;68.99;50.06;81.09;;
66888;Laerm;67239;51.680;5.976;2023-03-24T12:17:22;68.44;49.16;81.23;;
66888;Laerm;67239;51.680;5.976;2023-03-24T12:23:13;69.71;50.56;82.92;;
66888;Laerm;67239;51.680;5.976;2023-03-24T12:26:16;66.71;49.85;79.73;;
66888;Laerm;67239;51.680;5.976;2023-03-24T12:42:44;69.09;49.90;88.61;;
66888;Laerm;67239;51.680;5.976;2023-03-24T12:49:15;69.94;50.15;82.14;;
66888;Laerm;67239;51.680;5.976;2023-03-24T12:51:36;71.33;49.73;86.89;;
66888;Laerm;67239;51.680;5.976;2023-03-24T12:57:09;66.90;48.34;80.93;;
66888;Laerm;67239;51.680;5.976;2023-03-24T12:59:45;67.90;49.37;77.80;;
66888;Laerm;67239;51.680;5.976;2023-03-24T13:02:53;70.42;51.02;85.26;;
66888;Laerm;67239;51.680;5.976;2023-03-24T13:05:38;72.33;51.34;83.69;;
66888;Laerm;67239;51.680;5.976;2023-03-24T13:08:17;69.84;49.33;82.76;;
66888;Laerm;67239;51.680;5.976;2023-03-24T13:10:51;71.11;51.30;83.48;;
66888;Laerm;67239;51.680;5.976;2023-03-24T13:13:22;69.75;48.00;81.69;;
66888;Laerm;67239;51.680;5.976;2023-03-24T13:15:56;69.35;50.44;78.42;;
66888;Laerm;67239;51.680;5.976;2023-03-24T13:18:38;67.11;46.23;77.90;;
66888;Laerm;67239;51.680;5.976;2023-03-24T13:21:10;67.97;45.35;81.31;;
66888;Laerm;67239;51.680;5.976;2023-03-24T13:26:46;70.44;51.74;80.41;;
66888;Laerm;67239;51.680;5.976;2023-03-24T13:32:46;69.75;53.52;80.32;;
66888;Laerm;67239;51.680;5.976;2023-03-24T13:35:35;72.24;52.46;86.42;;
66888;Laerm;67239;51.680;5.976;2023-03-24T13:38:27;72.78;53.94;84.61;;
66888;Laerm;67239;51.680;5.976;2023-03-24T13:41:06;69.59;48.79;87.12;;
66888;Laerm;67239;51.680;5.976;2023-03-24T13:43:48;69.07;46.97;82.58;;
66888;Laerm;67239;51.680;5.976;2023-03-24T13:46:17;70.24;49.68;82.09;;
66888;Laerm;67239;51.680;5.976;2023-03-24T13:48:50;71.05;49.44;84.77;;
66888;Laerm;67239;51.680;5.976;2023-03-24T13:51:25;71.54;52.57;86.67;;
66888;Laerm;67239;51.680;5.976;2023-03-24T13:54:16;69.08;50.27;81.82;;
66888;Laerm;67239;51.680;5.976;2023-03-24T13:56:51;70.17;52.01;82.91;;
66888;Laerm;67239;51.680;5.976;2023-03-24T14:08:11;71.19;47.95;83.59;;
66888;Laerm;67239;51.680;5.976;2023-03-24T14:10:47;70.33;50.34;81.44;;
66888;Laerm;67239;51.680;5.976;2023-03-24T14:15:51;70.17;49.19;82.82;;
66888;Laerm;67239;51.680;5.976;2023-03-24T14:23:46;70.78;50.07;82.27;;
66888;Laerm;67239;51.680;5.976;2023-03-24T14:28:56;68.36;48.04;79.19;;
66888;Laerm;67239;51.680;5.976;2023-03-24T14:31:29;70.22;49.76;83.93;;
66888;Laerm;67239;51.680;5.976;2023-03-24T14:36:33;70.72;45.18;83.52;;
66888;Laerm;67239;51.680;5.976;2023-03-24T14:41:58;68.60;51.30;81.23;;
66888;Laerm;67239;51.680;5.976;2023-03-24T14:47:22;71.34;51.51;88.42;;
66888;Laerm;67239;51.680;5.976;2023-03-24T14:49:53;68.09;46.64;81.45;;
66888;Laerm;67239;51.680;5.976;2023-03-24T14:52:31;71.85;55.50;82.22;;
66888;Laerm;67239;51.680;5.976;2023-03-24T14:55:06;71.68;51.23;86.67;;
66888;Laerm;67239;51.680;5.976;2023-03-24T14:57:41;71.40;52.55;84.79;;
66888;Laerm;67239;51.680;5.976;2023-03-24T15:00:20;68.72;49.04;79.96;;
66888;Laerm;67239;51.680;5.976;2023-03-24T15:02:54;70.30;52.09;81.50;;
66888;Laerm;67239;51.680;5.976;2023-03-24T15:08:21;71.49;47.87;83.72;;
66888;Laerm;67239;51.680;5.976;2023-03-24T15:10:56;70.54;50.50;81.68;;
66888;Laerm;67239;51.680;5.976;2023-03-24T15:13:40;72.31;51.28;83.25;;
66888;Laerm;67239;51.680;5.976;2023-03-24T15:19:05;72.08;49.69;85.03;;
66888;Laerm;67239;51.680;5.976;2023-03-24T15:21:40;70.05;52.74;81.04;;
66888;Laerm;67239;51.680;5.976;2023-03-24T15:29:33;70.18;49.36;82.79;;
66888;Laerm;67239;51.680;5.976;2023-03-24T15:32:01;69.35;49.27;80.14;;
66888;Laerm;67239;51.680;5.976;2023-03-24T15:34:44;75.10;54.35;90.76;;
66888;Laerm;67239;51.680;5.976;2023-03-24T15:40:00;71.03;48.82;81.95;;
66888;Laerm;67239;51.680;5.976;2023-03-24T15:42:44;71.58;49.59;83.61;;
66888;Laerm;67239;51.680;5.976;2023-03-24T15:45:25;71.47;46.93;84.03;;
66888;Laerm;67239;51.680;5.976;2023-03-24T15:47:54;72.42;52.59;85.83;;
66888;Laerm;67239;51.680;5.976;2023-03-24T15:50:34;71.41;48.27;83.28;;
66888;Laerm;67239;51.680;5.976;2023-03-24T15:55:45;70.60;49.97;83.47;;
66888;Laerm;67239;51.680;5.976;2023-03-24T15:58:28;71.59;48.08;82.12;;
66888;Laerm;67239;51.680;5.976;2023-03-24T16:01:00;69.67;47.55;80.89;;
66888;Laerm;67239;51.680;5.976;2023-03-24T16:03:29;73.26;52.95;83.36;;
66888;Laerm;67239;51.680;5.976;2023-03-24T16:05:59;73.19;48.92;84.36;;
66888;Laerm;67239;51.680;5.976;2023-03-24T16:08:34;70.98;45.81;81.64;;
66888;Laerm;67239;51.680;5.976;2023-03-24T16:11:13;69.60;44.12;82.04;;
66888;Laerm;67239;51.680;5.976;2023-03-24T16:13:43;69.55;46.04;81.63;;
66888;Laerm;67239;51.680;5.976;2023-03-24T16:18:46;67.67;43.71;78.86;;
66888;Laerm;67239;51.680;5.976;2023-03-24T16:21:24;69.32;46.33;82.97;;
66888;Laerm;67239;51.680;5.976;2023-03-24T16:23:54;70.96;47.44;84.36;;
66888;Laerm;67239;51.680;5.976;2023-03-24T16:26:26;69.44;48.62;79.57;;
66888;Laerm;67239;51.680;5.976;2023-03-24T16:28:59;70.35;44.35;84.16;;
66888;Laerm;67239;51.680;5.976;2023-03-24T16:31:30;68.20;48.03;78.12;;
66888;Laerm;67239;51.680;5.976;2023-03-24T16:33:59;68.54;42.44;82.75;;